Laukaa, Finland
Kieli:  Suomi
CurCond
Päivitetty22/02/2019 08:35 
 

Lähistön Lentoasemien Säätiloja:

 

EFJY - Jyvaskyla (mil/C,) Finland
Etäisyys Sääasemalta: PKo 21km
Päivitetty: 22/02/2019 08:20
Selkeätä
Selkeätä
 Tuulen suunta varies
Tuuli: varies 2 km/h
Lämpötila: -21°C
Kastepiste: -23°C
Ilmankosteus: 84%
Ilmanpaine: 1038 hPa
Yhteenveto: Selkeätä
Näkyvyys: Enemmän Kuin 10 km
2019/02/22 06:20 EFJY 220620Z VRB01KT CAVOK M21/M23 Q1038
EFHA - Halli (fin-Afb), Finland
Etäisyys Sääasemalta: Lo 56km
Päivitetty: 22/02/2019 08:20
Selkeätä
Selkeätä
 Tuulen suunta PLu
Tuuli: PLu 4 km/h
Lämpötila: -20°C
Kastepiste: -22°C
Ilmankosteus: 84%
Ilmanpaine: 1038 hPa
Yhteenveto: Selkeätä
Näkyvyys: Enemmän Kuin 10 km
2019/02/22 06:20 EFHA 220620Z 34002KT CAVOK M20/M22 Q1038
EFMI - Mikkeli, Finland
Etäisyys Sääasemalta: IKa 105km
Päivitetty: 22/02/2019 08:20
Selkeätä
Selkeätä
 Tuulen suunta LLo
Tuuli: LLo 4 km/h
Lämpötila: -18°C
Kastepiste: -19°C
Ilmankosteus: 92%
Ilmanpaine: 1038 hPa
Yhteenveto: Selkeätä
Näkyvyys: Enemmän Kuin 10 km
2019/02/22 06:20 EFMI 220620Z AUTO 25002KT CAVOK M18/M19 Q1038
 
EFTP - Tampere/Pirkkala, Finland
Etäisyys Sääasemalta: Lo 135km
Päivitetty: 22/02/2019 08:20
Selkeätä
Selkeätä
 Tuulen suunta varies
Tuuli: varies 0 km/h
Lämpötila: -19°C
Kastepiste: -21°C
Ilmankosteus: 84%
Ilmanpaine: 1039 hPa
Yhteenveto: Selkeätä
Näkyvyys: Enemmän Kuin 10 km
2019/02/22 06:20 EFTP 220620Z VRB00KT CAVOK M19/M21 Q1039
EFKU - Kuopio (mil/Civ), Finland
Etäisyys Sääasemalta: Ko 146km
Päivitetty: 22/02/2019 08:20
Selkeätä
Selkeätä
 Tuulen suunta L
Tuuli: L 6 km/h
Lämpötila: -18°C
Kastepiste: -20°C
Ilmankosteus: 84%
Ilmanpaine: 1037 hPa
Yhteenveto: Selkeätä
Näkyvyys: Enemmän Kuin 10 km
2019/02/22 06:20 EFKU 220620Z 28003KT CAVOK M18/M20 Q1037
EFSI - Seinajoki-Ilmajo, Finland
Etäisyys Sääasemalta: LLu 149km
Päivitetty: 22/02/2019 08:20
Selkeätä
Selkeätä
 Tuulen suunta Ka
Tuuli: Ka 4 km/h
Lämpötila: -22°C
Kastepiste: -24°C
Ilmankosteus: 84%
Ilmanpaine: 1039 hPa
Yhteenveto: Selkeätä
Näkyvyys: Enemmän Kuin 10 km
2019/02/22 06:20 EFSI 220620Z 13002KT CAVOK M22/M24 Q1039